createdAt,value
2017-07-17T00:01:17.413Z,58.90
2017-07-17T00:03:44.988Z,58.90
2017-07-17T00:06:12.543Z,60.00
2017-07-17T00:08:40.069Z,59.20
2017-07-17T00:11:07.631Z,59.50
2017-07-17T00:13:35.154Z,59.80
2017-07-17T00:16:02.697Z,60.70
2017-07-17T00:18:30.227Z,61.60
2017-07-17T00:20:57.746Z,62.00
2017-07-17T00:23:26.058Z,62.30
2017-07-17T00:25:53.573Z,62.30
2017-07-17T00:28:21.880Z,64.00
2017-07-17T00:30:49.509Z,64.00
2017-07-17T00:33:17.053Z,64.90
2017-07-17T00:35:44.586Z,65.20
2017-07-17T00:38:12.120Z,65.10
2017-07-17T00:40:39.662Z,65.50
2017-07-17T00:43:07.197Z,66.60
2017-07-17T00:45:34.743Z,66.10
2017-07-17T00:48:02.271Z,66.80
2017-07-17T00:50:29.797Z,66.80
2017-07-17T00:52:57.342Z,66.70
2017-07-17T00:55:25.632Z,66.50
2017-07-17T00:57:53.172Z,66.50
2017-07-17T01:00:21.455Z,67.00
2017-07-17T01:02:49.764Z,68.20
2017-07-17T01:05:17.292Z,68.00
2017-07-17T01:07:45.578Z,70.60
2017-07-17T01:10:13.121Z,71.20
2017-07-17T01:12:40.644Z,71.20
2017-07-17T01:15:08.190Z,71.10
2017-07-17T01:17:35.750Z,72.00
2017-07-17T01:20:03.277Z,71.40
2017-07-17T01:22:30.793Z,71.80
2017-07-17T01:24:59.073Z,72.50
2017-07-17T01:27:26.610Z,73.10
2017-07-17T01:29:54.125Z,73.50
2017-07-17T01:32:21.658Z,74.10
2017-07-17T01:34:49.194Z,74.90
2017-07-17T01:37:16.725Z,75.50
2017-07-17T01:39:44.293Z,76.20
2017-07-17T01:42:11.813Z,76.70
2017-07-17T01:44:39.366Z,76.20
2017-07-17T01:47:07.646Z,75.20
2017-07-17T01:49:35.931Z,75.10
2017-07-17T01:52:03.471Z,75.10
2017-07-17T01:54:31.784Z,76.40
2017-07-17T01:56:59.317Z,75.50
2017-07-17T01:59:26.893Z,75.60
2017-07-17T02:01:54.441Z,75.90
2017-07-17T02:04:22.732Z,78.00
2017-07-17T02:06:50.273Z,78.00
2017-07-17T02:09:18.558Z,78.70
2017-07-17T02:11:46.081Z,78.60
2017-07-17T02:14:13.639Z,78.90
2017-07-17T02:16:41.157Z,79.30
2017-07-17T02:19:08.698Z,79.70
2017-07-17T02:21:36.220Z,79.70
2017-07-17T02:24:03.750Z,79.60
2017-07-17T02:26:31.286Z,79.60
2017-07-17T02:28:58.834Z,79.60
2017-07-17T02:31:26.356Z,79.60
2017-07-17T02:33:53.881Z,79.60
2017-07-17T02:36:21.445Z,79.50
2017-07-17T02:38:48.961Z,79.30
2017-07-17T02:41:16.509Z,79.50
2017-07-17T02:43:44.793Z,80.00
2017-07-17T02:46:13.089Z,80.40
2017-07-17T02:48:40.616Z,80.40
2017-07-17T02:51:08.911Z,80.80
2017-07-17T02:53:36.433Z,80.80
2017-07-17T02:56:03.966Z,81.00
2017-07-17T02:58:31.502Z,81.30
2017-07-17T03:00:59.037Z,81.60
2017-07-17T03:03:27.332Z,81.40
2017-07-17T03:05:54.844Z,81.20
2017-07-17T03:08:22.382Z,81.30
2017-07-17T03:10:49.899Z,81.30
2017-07-17T03:13:17.446Z,81.30
2017-07-17T03:15:45.734Z,81.90
2017-07-17T03:18:13.245Z,81.90
2017-07-17T03:20:40.774Z,82.60
2017-07-17T03:23:08.400Z,82.70
2017-07-17T03:25:36.691Z,82.40
2017-07-17T03:28:04.211Z,82.40
2017-07-17T03:30:31.750Z,82.00
2017-07-17T03:32:59.262Z,81.00
2017-07-17T03:35:26.846Z,81.00
2017-07-17T03:37:54.371Z,80.80
2017-07-17T03:40:22.658Z,79.70
2017-07-17T03:42:50.202Z,79.70
2017-07-17T03:45:18.492Z,78.10
2017-07-17T03:47:46.037Z,78.00
2017-07-17T03:50:14.319Z,76.10
2017-07-17T03:52:41.853Z,76.00
2017-07-17T03:55:09.378Z,75.40
2017-07-17T03:57:36.922Z,75.70
2017-07-17T04:00:04.453Z,73.90
2017-07-17T04:02:32.754Z,71.70
2017-07-17T04:05:00.285Z,71.70
2017-07-17T04:07:27.833Z,69.60
2017-07-17T04:09:56.138Z,66.80
2017-07-17T04:12:23.653Z,66.80
2017-07-17T04:14:51.222Z,66.20
2017-07-17T04:17:19.513Z,66.20
2017-07-17T04:19:47.802Z,66.80
2017-07-17T04:22:15.370Z,66.80
2017-07-17T04:24:43.708Z,65.20
2017-07-17T04:27:11.257Z,64.90
2017-07-17T04:29:38.773Z,63.60
2017-07-17T04:32:06.307Z,62.80
2017-07-17T04:34:34.603Z,62.10
2017-07-17T04:37:02.135Z,62.10
2017-07-17T04:39:30.441Z,61.20
2017-07-17T04:41:57.965Z,61.20
2017-07-17T04:44:26.270Z,62.80
2017-07-17T04:46:53.838Z,62.10
2017-07-17T04:49:21.368Z,60.80
2017-07-17T04:51:48.881Z,61.00
2017-07-17T04:54:16.449Z,59.70
2017-07-17T04:56:43.994Z,59.90
2017-07-17T04:59:11.534Z,60.00
2017-07-17T05:01:39.059Z,59.10
2017-07-17T05:04:07.366Z,60.00
2017-07-17T05:06:34.902Z,59.90
2017-07-17T05:09:03.217Z,60.30
2017-07-17T05:11:30.741Z,60.20
2017-07-17T05:13:58.266Z,60.00
2017-07-17T05:16:26.599Z,59.80
2017-07-17T05:18:54.118Z,59.80
2017-07-17T05:21:22.424Z,58.90
2017-07-17T05:23:49.949Z,58.90
2017-07-17T05:26:17.565Z,58.90
2017-07-17T05:28:45.133Z,59.00
2017-07-17T05:31:12.680Z,58.90
2017-07-17T05:33:40.218Z,59.70
2017-07-17T05:36:07.839Z,59.70
2017-07-17T05:38:35.404Z,60.70
2017-07-17T05:41:03.721Z,59.80
2017-07-17T05:43:31.253Z,59.00
2017-07-17T05:45:59.546Z,59.00
2017-07-17T05:48:27.086Z,58.90
2017-07-17T05:50:55.391Z,57.00
2017-07-17T05:53:22.953Z,57.00
2017-07-17T05:55:50.479Z,56.70
2017-07-17T05:58:18.762Z,57.90
2017-07-17T06:00:47.067Z,56.50
2017-07-17T06:03:14.587Z,56.50
2017-07-17T06:05:42.125Z,55.40
2017-07-17T06:08:09.667Z,54.70
2017-07-17T06:10:37.207Z,53.90
2017-07-17T06:13:04.755Z,52.50
2017-07-17T06:15:32.299Z,51.50
2017-07-17T06:17:59.830Z,51.40
2017-07-17T06:20:27.371Z,51.50
2017-07-17T06:22:54.933Z,51.60
2017-07-17T06:25:22.455Z,50.80
2017-07-17T06:27:49.998Z,50.40
2017-07-17T06:30:17.534Z,49.30
2017-07-17T06:32:45.881Z,47.50
2017-07-17T06:35:13.398Z,47.50
2017-07-17T06:37:40.954Z,48.40
2017-07-17T06:40:08.483Z,49.00
2017-07-17T06:42:36.005Z,48.90
2017-07-17T06:45:03.546Z,49.90
2017-07-17T06:47:31.083Z,47.80
2017-07-17T06:49:58.630Z,47.50
2017-07-17T06:52:26.947Z,45.10
2017-07-17T06:54:54.503Z,45.10
2017-07-17T06:57:22.037Z,44.60
2017-07-17T06:59:49.562Z,45.90
2017-07-17T07:02:17.110Z,45.00
2017-07-17T07:04:44.636Z,46.50
2017-07-17T07:07:12.174Z,44.50
2017-07-17T07:09:39.721Z,43.80
2017-07-17T07:12:08.144Z,42.40
2017-07-17T07:14:35.664Z,42.30
2017-07-17T07:17:03.969Z,41.00
2017-07-17T07:19:31.495Z,41.00
2017-07-17T07:21:59.813Z,42.00
2017-07-17T07:24:27.369Z,42.10
2017-07-17T07:26:54.888Z,42.70
2017-07-17T07:29:23.227Z,43.60
2017-07-17T07:31:50.759Z,43.50
2017-07-17T07:34:18.338Z,40.60
2017-07-17T07:36:45.894Z,39.60
2017-07-17T07:39:13.437Z,38.30
2017-07-17T07:41:40.981Z,37.90
2017-07-17T07:44:08.510Z,37.30
2017-07-17T07:46:36.154Z,36.60
2017-07-17T07:49:03.685Z,36.20
2017-07-17T07:51:31.233Z,36.40
2017-07-17T07:53:58.758Z,35.60
2017-07-17T07:56:27.070Z,33.00
2017-07-17T07:58:54.619Z,32.90
2017-07-17T08:01:22.136Z,32.40
2017-07-17T08:03:49.666Z,31.70
2017-07-17T08:06:17.194Z,30.60
2017-07-17T08:08:44.741Z,30.10
2017-07-17T08:11:13.059Z,29.60
2017-07-17T08:13:40.593Z,29.50
2017-07-17T08:16:08.114Z,29.20
2017-07-17T08:18:35.645Z,28.20
2017-07-17T08:21:03.209Z,27.30
2017-07-17T08:23:30.756Z,26.90
2017-07-17T08:25:58.283Z,26.70
2017-07-17T08:28:25.814Z,27.40
2017-07-17T08:30:53.353Z,27.30
2017-07-17T08:33:20.869Z,26.80
2017-07-17T08:35:48.393Z,26.10
2017-07-17T08:38:16.693Z,25.80
2017-07-17T08:40:44.233Z,25.80
2017-07-17T08:43:12.519Z,26.00
2017-07-17T08:45:40.049Z,25.90
2017-07-17T08:48:07.577Z,24.40
2017-07-17T08:50:35.133Z,23.60
2017-07-17T08:53:02.675Z,23.10
2017-07-17T08:55:30.243Z,22.90
2017-07-17T08:57:57.788Z,23.80
2017-07-17T09:00:25.329Z,23.90
2017-07-17T09:02:52.865Z,23.00
2017-07-17T09:05:20.414Z,21.60
2017-07-17T09:07:47.945Z,21.80
2017-07-17T09:10:15.455Z,23.20
2017-07-17T09:12:43.775Z,22.30
2017-07-17T09:15:11.289Z,22.30
2017-07-17T09:17:39.587Z,23.10
2017-07-17T09:20:07.118Z,23.10
2017-07-17T09:22:35.431Z,21.70
2017-07-17T09:25:02.969Z,21.80
2017-07-17T09:27:31.250Z,22.50
2017-07-17T09:29:58.778Z,22.50
2017-07-17T09:32:27.082Z,22.50
2017-07-17T09:34:54.625Z,22.80
2017-07-17T09:37:22.934Z,21.50
2017-07-17T09:39:50.514Z,21.20
2017-07-17T09:42:18.034Z,20.00
2017-07-17T09:44:46.326Z,19.50
2017-07-17T09:47:13.881Z,19.50
2017-07-17T09:49:41.405Z,19.30
2017-07-17T09:52:08.937Z,19.70
2017-07-17T09:54:36.476Z,20.00
2017-07-17T09:57:04.028Z,19.90
2017-07-17T09:59:31.553Z,18.80
2017-07-17T10:01:59.858Z,19.10
2017-07-17T10:04:27.390Z,19.10
2017-07-17T10:06:55.698Z,20.80
2017-07-17T10:09:23.216Z,20.80
2017-07-17T10:11:51.560Z,19.70
2017-07-17T10:14:19.092Z,19.60
2017-07-17T10:16:46.627Z,17.80
2017-07-17T10:19:14.929Z,18.10
2017-07-17T10:21:42.441Z,18.00
2017-07-17T10:24:09.986Z,18.40
2017-07-17T10:26:37.505Z,19.70
2017-07-17T10:29:05.036Z,18.80
2017-07-17T10:31:33.314Z,18.50
2017-07-17T10:34:01.684Z,18.20
2017-07-17T10:36:29.986Z,20.00
2017-07-17T10:38:57.507Z,20.00
2017-07-17T10:41:25.134Z,20.30
2017-07-17T10:43:52.654Z,20.00
2017-07-17T10:46:20.189Z,20.90
2017-07-17T10:48:48.504Z,22.00
2017-07-17T10:51:16.038Z,21.40
2017-07-17T10:53:44.340Z,20.60
2017-07-17T10:56:11.885Z,20.50
2017-07-17T10:58:39.407Z,20.40
2017-07-17T11:01:06.979Z,18.40
2017-07-17T11:03:34.523Z,18.00
2017-07-17T11:06:08.237Z,18.40
2017-07-17T11:08:37.176Z,18.50
2017-07-17T11:11:04.689Z,17.80
2017-07-17T11:13:33.010Z,15.30
2017-07-17T11:16:00.571Z,15.20
2017-07-17T11:18:28.716Z,14.90
2017-07-17T11:20:57.050Z,13.80
2017-07-17T11:23:25.279Z,13.80
2017-07-17T11:25:59.589Z,14.50
2017-07-17T11:28:27.168Z,15.00
2017-07-17T11:30:54.705Z,15.30
2017-07-17T11:33:23.035Z,17.30
2017-07-17T11:35:50.591Z,17.30
2017-07-17T11:38:19.979Z,17.90
2017-07-17T11:40:49.669Z,20.40
2017-07-17T11:43:17.941Z,19.50
2017-07-17T11:45:45.472Z,19.70
2017-07-17T11:58:20.006Z,21.80
2017-07-17T12:00:47.533Z,20.90
2017-07-17T12:03:15.037Z,21.60
2017-07-17T12:08:10.027Z,20.50
2017-07-17T12:10:37.568Z,20.00
2017-07-17T12:13:05.081Z,19.20
2017-07-17T12:15:32.634Z,19.40
2017-07-17T12:18:03.313Z,18.60
2017-07-17T12:20:30.860Z,18.20
2017-07-17T12:22:58.397Z,17.90
2017-07-17T12:25:25.948Z,17.50
2017-07-17T12:27:53.461Z,17.70
2017-07-17T12:30:20.978Z,17.40
2017-07-17T12:32:48.506Z,17.20
2017-07-17T12:35:16.024Z,17.30
2017-07-17T12:37:44.329Z,16.70
2017-07-17T12:40:11.848Z,16.70
2017-07-17T12:42:40.162Z,16.50
2017-07-17T12:45:07.702Z,16.40
2017-07-17T12:47:35.235Z,16.80
2017-07-17T12:50:03.527Z,18.90
2017-07-17T12:52:31.842Z,17.90
2017-07-17T12:54:59.458Z,17.80
2017-07-17T12:57:27.786Z,17.70
2017-07-17T12:59:55.318Z,17.80
2017-07-17T13:02:22.945Z,18.60
2017-07-17T13:04:50.497Z,19.30
2017-07-17T13:07:18.014Z,18.50
2017-07-17T13:09:45.535Z,18.80
2017-07-17T13:12:13.058Z,19.60
2017-07-17T13:14:40.591Z,19.50
2017-07-17T13:17:08.106Z,18.60
2017-07-17T13:19:35.660Z,17.80
2017-07-17T13:22:03.193Z,17.40
2017-07-17T13:24:30.708Z,17.60
2017-07-17T13:26:58.261Z,16.60
2017-07-17T13:29:25.780Z,16.70
2017-07-17T13:31:53.322Z,17.00
2017-07-17T13:34:20.842Z,18.50
2017-07-17T13:36:48.409Z,18.80
2017-07-17T13:39:15.913Z,18.60
2017-07-17T13:41:43.422Z,18.80
2017-07-17T13:44:10.960Z,18.40
2017-07-17T13:46:39.249Z,17.50
2017-07-17T13:49:06.781Z,17.40
2017-07-17T13:51:35.070Z,17.70
2017-07-17T13:54:03.383Z,16.30
2017-07-17T13:56:30.904Z,16.20
2017-07-17T13:58:58.446Z,16.50
2017-07-17T14:01:25.961Z,17.60
2017-07-17T14:03:53.492Z,19.20
2017-07-17T14:06:21.030Z,20.50
2017-07-17T14:08:49.305Z,20.50
2017-07-17T14:11:16.837Z,20.50
2017-07-17T14:13:44.385Z,18.30
2017-07-17T14:16:11.928Z,17.00
2017-07-17T14:18:39.444Z,16.60
2017-07-17T14:21:07.748Z,16.70
2017-07-17T14:23:35.279Z,16.70
2017-07-17T14:26:03.579Z,17.80
2017-07-17T14:28:31.106Z,17.90
2017-07-17T14:30:58.613Z,18.50
2017-07-17T14:33:26.148Z,19.60
2017-07-17T14:35:53.673Z,19.80
2017-07-17T14:38:21.191Z,19.90
2017-07-17T14:40:48.730Z,20.20
2017-07-17T14:43:16.256Z,20.90
2017-07-17T14:45:43.777Z,21.00
2017-07-17T14:48:11.320Z,19.40
2017-07-17T14:50:38.834Z,18.90
2017-07-17T14:53:06.364Z,18.30
2017-07-17T14:55:33.881Z,16.50
2017-07-17T14:58:01.400Z,17.30
2017-07-17T15:00:28.926Z,18.80
2017-07-17T15:02:56.444Z,18.20
2017-07-17T15:05:23.978Z,18.00
2017-07-17T15:07:51.492Z,18.70
2017-07-17T15:10:19.026Z,19.70
2017-07-17T15:12:46.797Z,20.10
2017-07-17T15:15:14.344Z,20.70
2017-07-17T15:17:41.858Z,22.40
2017-07-17T15:20:09.404Z,23.20
2017-07-17T15:22:36.931Z,23.20
2017-07-17T15:25:04.505Z,23.60
2017-07-17T15:27:32.018Z,22.70
2017-07-17T15:30:00.296Z,24.30
2017-07-17T15:32:28.636Z,24.40
2017-07-17T15:34:56.159Z,24.40
2017-07-17T15:37:23.702Z,24.70
2017-07-17T15:39:52.014Z,22.50
2017-07-17T15:42:19.554Z,22.50
2017-07-17T15:44:47.076Z,22.70
2017-07-17T15:47:14.604Z,23.20
2017-07-17T15:49:42.129Z,22.70
2017-07-17T15:52:09.656Z,22.50
2017-07-17T15:54:37.179Z,22.60
2017-07-17T15:57:04.710Z,23.10
2017-07-17T15:59:32.232Z,23.20
2017-07-17T16:01:59.745Z,24.60
2017-07-17T16:04:27.290Z,24.00
2017-07-17T16:06:54.813Z,24.90
2017-07-17T16:09:23.121Z,24.20
2017-07-17T16:11:50.635Z,24.10
2017-07-17T16:14:18.170Z,25.20
2017-07-17T16:16:45.689Z,26.00
2017-07-17T16:19:13.221Z,26.90
2017-07-17T16:21:41.500Z,26.40
2017-07-17T16:24:09.824Z,26.60
2017-07-17T16:26:37.351Z,26.60
2017-07-17T16:29:04.905Z,27.20
2017-07-17T16:31:33.177Z,27.80
2017-07-17T16:34:01.461Z,26.90
2017-07-17T16:36:29.770Z,27.90
2017-07-17T16:38:57.304Z,27.90
2017-07-17T16:41:24.842Z,27.60
2017-07-17T16:43:53.135Z,28.30
2017-07-17T16:46:20.669Z,28.30
2017-07-17T16:48:48.961Z,29.20
2017-07-17T16:51:17.261Z,29.60
2017-07-17T16:53:44.805Z,29.50
2017-07-17T16:56:12.350Z,31.00
2017-07-17T16:58:40.632Z,31.60
2017-07-17T17:01:08.934Z,31.30
2017-07-17T17:03:37.021Z,31.20
2017-07-17T17:06:04.561Z,32.90
2017-07-17T17:08:32.103Z,33.10
2017-07-17T17:11:00.373Z,34.00
2017-07-17T17:13:28.673Z,35.10
2017-07-17T17:15:56.188Z,35.10
2017-07-17T17:18:23.718Z,34.90
2017-07-17T17:20:51.268Z,34.70
2017-07-17T17:23:18.795Z,36.20
2017-07-17T17:25:46.338Z,34.50
2017-07-17T17:28:14.642Z,34.70
2017-07-17T17:30:42.169Z,34.70
2017-07-17T17:33:10.459Z,36.00
2017-07-17T17:35:38.761Z,35.10
2017-07-17T17:38:06.285Z,35.00
2017-07-17T17:40:33.871Z,36.10
2017-07-17T17:43:01.390Z,37.00
2017-07-17T17:45:28.921Z,35.60
2017-07-17T17:47:56.458Z,35.60
2017-07-17T17:50:23.986Z,36.50
2017-07-17T17:52:52.277Z,37.50
2017-07-17T17:55:19.795Z,37.50
2017-07-17T17:57:47.348Z,37.60
2017-07-17T18:00:14.883Z,38.20
2017-07-17T18:02:42.418Z,37.90
2017-07-17T18:05:09.941Z,38.10
2017-07-17T18:07:37.514Z,39.20
2017-07-17T18:10:05.046Z,39.00
2017-07-17T18:12:32.601Z,39.70
2017-07-17T18:15:00.140Z,39.20
2017-07-17T18:17:27.667Z,40.10
2017-07-17T18:19:55.537Z,40.10
2017-07-17T18:22:23.056Z,40.50
2017-07-17T18:24:50.597Z,40.80
2017-07-17T18:27:18.121Z,40.70
2017-07-17T18:29:45.663Z,42.20
2017-07-17T18:32:13.182Z,41.50
2017-07-17T18:34:40.714Z,41.50
2017-07-17T18:37:08.281Z,42.00
2017-07-17T18:39:35.789Z,42.10
2017-07-17T18:42:03.330Z,42.70
2017-07-17T18:44:31.630Z,42.40
2017-07-17T18:46:59.176Z,43.00
2017-07-17T18:49:27.465Z,43.50
2017-07-17T18:51:55.018Z,43.40
2017-07-17T18:54:23.296Z,44.40
2017-07-17T18:56:51.907Z,44.50
2017-07-17T18:59:19.463Z,44.50
2017-07-17T19:01:46.984Z,45.10
2017-07-17T19:04:15.305Z,46.70
2017-07-17T19:06:42.851Z,46.30
2017-07-17T19:09:10.374Z,46.60
2017-07-17T19:11:37.934Z,47.20
2017-07-17T19:14:06.221Z,48.00
2017-07-17T19:16:33.777Z,48.00
2017-07-17T19:19:02.078Z,48.40
2017-07-17T19:21:29.619Z,48.40
2017-07-17T19:23:57.145Z,48.70
2017-07-17T19:26:24.690Z,49.20
2017-07-17T19:28:52.202Z,49.10
2017-07-17T19:31:19.761Z,49.80
2017-07-17T19:33:47.302Z,50.40
2017-07-17T19:36:14.917Z,51.00
2017-07-17T19:38:42.439Z,51.00
2017-07-17T19:41:09.978Z,51.50
2017-07-17T19:43:37.502Z,51.90
2017-07-17T19:46:05.022Z,53.20
2017-07-17T19:48:32.576Z,53.20
2017-07-17T19:51:00.116Z,53.70
2017-07-17T19:53:28.078Z,53.20
2017-07-17T19:55:56.360Z,53.30
2017-07-17T19:58:24.690Z,53.60
2017-07-17T20:00:52.209Z,53.60
2017-07-17T20:03:19.726Z,53.50
2017-07-17T20:05:47.323Z,55.40
2017-07-17T20:08:15.604Z,55.10
2017-07-17T20:10:43.236Z,55.10
2017-07-17T20:13:10.754Z,56.20
2017-07-17T20:15:38.312Z,56.00
2017-07-17T20:18:05.825Z,55.70
2017-07-17T20:20:34.140Z,55.80
2017-07-17T20:23:01.667Z,55.90
2017-07-17T20:25:29.229Z,57.20
2017-07-17T20:27:56.762Z,58.00
2017-07-17T20:30:24.282Z,58.00
2017-07-17T20:32:51.813Z,58.40
2017-07-17T20:35:19.327Z,59.00
2017-07-17T20:37:46.863Z,58.70
2017-07-17T20:40:14.402Z,60.00
2017-07-17T20:42:45.472Z,61.30
2017-07-17T20:45:13.048Z,61.70
2017-07-17T20:47:40.564Z,62.50
2017-07-17T20:50:08.102Z,63.60
2017-07-17T20:52:35.642Z,64.40
2017-07-17T20:55:03.949Z,63.20
2017-07-17T20:57:31.470Z,63.20
2017-07-17T20:59:59.020Z,64.20
2017-07-17T21:02:26.545Z,63.70
2017-07-17T21:04:54.066Z,65.80
2017-07-17T21:07:22.380Z,66.30
2017-07-17T21:09:49.901Z,66.30
2017-07-17T21:12:18.212Z,66.90
2017-07-17T21:14:45.740Z,66.80
2017-07-17T21:17:14.050Z,67.50
2017-07-17T21:19:41.589Z,67.40
2017-07-17T21:22:09.143Z,68.50
2017-07-17T21:24:36.673Z,68.20
2017-07-17T21:27:04.211Z,67.60
2017-07-17T21:29:31.721Z,67.40
2017-07-17T21:31:59.261Z,67.80
2017-07-17T21:34:27.556Z,69.00
2017-07-17T21:36:55.112Z,69.00
2017-07-17T21:39:22.633Z,70.10
2017-07-17T21:41:50.149Z,70.10
2017-07-17T21:44:17.698Z,69.70
2017-07-17T21:46:45.228Z,70.10
2017-07-17T21:49:12.836Z,70.40
2017-07-17T21:51:40.349Z,70.20
2017-07-17T21:54:07.898Z,71.00
2017-07-17T21:56:35.446Z,71.50
2017-07-17T21:59:02.984Z,71.80
2017-07-17T22:01:30.503Z,72.70
2017-07-17T22:03:58.071Z,73.30
2017-07-17T22:06:25.599Z,74.00
2017-07-17T22:08:53.138Z,74.70
2017-07-17T22:11:20.677Z,75.60
2017-07-17T22:13:48.192Z,75.50
2017-07-17T22:16:15.730Z,75.20
2017-07-17T22:18:44.017Z,74.70
2017-07-17T22:21:12.340Z,76.10
2017-07-17T22:23:39.882Z,76.10
2017-07-17T22:26:07.408Z,77.40
2017-07-17T22:28:35.710Z,78.70
2017-07-17T22:31:03.243Z,78.70
2017-07-17T22:33:31.557Z,79.00
2017-07-17T22:35:59.281Z,78.90
2017-07-17T22:38:27.586Z,80.50
2017-07-17T22:40:55.115Z,80.50
2017-07-17T22:43:22.632Z,80.60
2017-07-17T22:45:50.170Z,80.70
2017-07-17T22:48:17.706Z,80.70
2017-07-17T22:50:45.246Z,80.80
2017-07-17T22:53:13.520Z,80.60
2017-07-17T22:55:41.053Z,79.90
2017-07-17T22:58:08.590Z,78.80
2017-07-17T23:00:36.134Z,80.30
2017-07-17T23:03:03.659Z,80.00
2017-07-17T23:05:31.956Z,81.20
2017-07-17T23:07:59.498Z,81.20
2017-07-17T23:10:27.794Z,80.50
2017-07-17T23:12:55.329Z,80.50
2017-07-17T23:15:23.611Z,80.40
2017-07-17T23:17:51.922Z,79.70
2017-07-17T23:20:19.435Z,79.70
2017-07-17T23:22:47.741Z,79.20
2017-07-17T23:25:15.249Z,79.20
2017-07-17T23:27:42.768Z,79.50
2017-07-17T23:30:10.303Z,79.80
2017-07-17T23:32:38.586Z,80.10
2017-07-17T23:35:06.147Z,80.00
2017-07-17T23:37:33.661Z,80.10
2017-07-17T23:40:01.963Z,81.00
2017-07-17T23:42:30.249Z,80.90
2017-07-17T23:44:58.554Z,82.10
2017-07-17T23:47:26.071Z,82.00
2017-07-17T23:49:54.349Z,82.60
2017-07-17T23:52:22.666Z,83.00
2017-07-17T23:54:50.181Z,83.00
2017-07-17T23:57:17.717Z,83.00
2017-07-17T23:59:45.243Z,83.00
